모두
Milingimbi Airport (Millingimbi, Northern Territory) MGT 기상
|
Millingimbi, Northern Territory (MGT / YMGB)
맑은 하늘
가벼운 바람 |
|
26 °C |
There is no TAF data available at MGT or any nearby airports.
최근 MGT METAR 이력
| Date | Time (ACST) | Flight Rules | Wind Dir. | Speed | Type | Height AGL (ft) | Visibility | Temp (°C) | Temp (°F) | Dew Point (°C) | Dew Point (°F) | Rel. Humid. | Pressure | Density Altitude | Remarks |
|---|---|---|---|---|---|---|---|---|---|---|---|---|---|---|---|
| 05-5월 | 08:30 | n/a | 140° | 7 kt | Missing | 26° | 78° | 24° | 75° | 89% | 1012 mb | 1,409 ft | |||
| 05-5월 | 07:30 | n/a | 150° | 6 kt | Missing | 25° | 77° | 24° | 75° | 94% | 1012 mb | 1,289 ft | |||
| 05-5월 | 06:30 | n/a | 140° | 4 kt | Missing | 24° | 75° | 23° | 73° | 94% | 1011 mb | 1,198 ft | |||
| 05-5월 | 05:30 | n/a | 150° | 5 kt | Missing | 24° | 75° | 24° | 75° | 100% | 1010 mb | 1,228 ft | |||
| 05-5월 | 04:30 | n/a | 130° | 3 kt | Missing | 24° | 75° | 23° | 73° | 94% | 1010 mb | 1,228 ft | |||
| 05-5월 | 03:30 | n/a | 140° | 5 kt | Missing | 25° | 77° | 24° | 75° | 94% | 1011 mb | 1,318 ft | |||
| 05-5월 | 02:30 | n/a | 140° | 5 kt | Missing | 25° | 77° | 24° | 75° | 94% | 1011 mb | 1,318 ft | |||
| 05-5월 | 01:30 | n/a | 150° | 6 kt | Missing | 25° | 77° | 24° | 75° | 94% | 1011 mb | 1,318 ft | |||
| 05-5월 | 00:30 | n/a | 140° | 3 kt | Missing | 24° | 75° | 24° | 75° | 100% | 1011 mb | 1,198 ft | |||
| 04-5월 | 23:30 | n/a | 150° | 1 kt | Missing | 24° | 75° | 23° | 73° | 94% | 1012 mb | 1,169 ft | |||
| 04-5월 | 22:30 | n/a | 170° | 1 kt | Missing | 25° | 77° | 24° | 75° | 94% | 1012 mb | 1,289 ft | |||
| 04-5월 | 21:30 | n/a | Calm | Missing | 25° | 77° | 24° | 75° | 94% | 1012 mb | 1,289 ft | ||||
| 04-5월 | 20:30 | n/a | Calm | Missing | 25° | 77° | 24° | 75° | 94% | 1012 mb | 1,289 ft | ||||
| 04-5월 | 19:30 | n/a | 100° | 5 kt | Missing | 25° | 77° | 23° | 73° | 89% | 1012 mb | 1,289 ft | |||
| 04-5월 | 18:30 | n/a | 170° | 12 kt | Missing | 26° | 78° | 23° | 73° | 84% | 1011 mb | 1,438 ft | |||
| 04-5월 | 17:30 | n/a | 20° | 5 kt | Missing | 30° | 86° | 24° | 75° | 70% | 1010 mb | 1,948 ft | |||
| 04-5월 | 16:30 | n/a | 360° | 6 kt | Missing | 31° | 87° | 24° | 75° | 66% | 1009 mb | 2,097 ft | |||
| 04-5월 | 15:30 | n/a | 70° | 7 kt | Missing | 32° | 89° | 23° | 73° | 59% | 1009 mb | 2,217 ft | |||
| 04-5월 | 14:30 | n/a | 70° | 7 kt | Missing | 32° | 89° | 24° | 75° | 63% | 1010 mb | 2,188 ft | |||
| 04-5월 | 13:30 | n/a | 50° | 7 kt | Missing | 32° | 89° | 24° | 75° | 63% | 1010 mb | 2,188 ft | |||
| 04-5월 | 12:30 | n/a | 100° | 7 kt | Missing | 32° | 89° | 23° | 73° | 59% | 1011 mb | 2,158 ft | |||
| 04-5월 | 11:30 | n/a | 110° | 8 kt | Missing | 30° | 86° | 24° | 75° | 70% | 1012 mb | 1,889 ft | |||
| 04-5월 | 10:30 | n/a | 120° | 8 kt | Missing | 31° | 87° | 24° | 75° | 66% | 1012 mb | 2,009 ft | |||
| 04-5월 | 09:30 | n/a | 120° | 7 kt | Missing | 30° | 86° | 24° | 75° | 70% | 1012 mb | 1,889 ft |
로그인
| 귀하의 브라우저는 지원되지 않습니다.. 브라우저를 업그레이드하세요 |
